sensor_id;sensor_type;location;lat;lon;timestamp;P1;durP1;ratioP1;P2;durP2;ratioP2
29380;SDS011;16364;52.490;13.326;2023-07-16T00:02:19;2.70;;;2.50;;
29380;SDS011;16364;52.490;13.326;2023-07-16T00:04:45;2.60;;;2.40;;
29380;SDS011;16364;52.490;13.326;2023-07-16T00:07:10;2.90;;;2.70;;
29380;SDS011;16364;52.490;13.326;2023-07-16T00:09:35;3.93;;;2.87;;
29380;SDS011;16364;52.490;13.326;2023-07-16T00:12:01;3.00;;;2.00;;
29380;SDS011;16364;52.490;13.326;2023-07-16T00:14:26;3.10;;;2.10;;
29380;SDS011;16364;52.490;13.326;2023-07-16T00:16:51;3.07;;;2.87;;
29380;SDS011;16364;52.490;13.326;2023-07-16T00:19:16;2.67;;;2.37;;
29380;SDS011;16364;52.490;13.326;2023-07-16T00:21:42;2.40;;;2.20;;
29380;SDS011;16364;52.490;13.326;2023-07-16T00:24:07;2.60;;;2.30;;
29380;SDS011;16364;52.490;13.326;2023-07-16T00:26:32;2.60;;;2.40;;
29380;SDS011;16364;52.490;13.326;2023-07-16T00:28:57;2.40;;;2.20;;
29380;SDS011;16364;52.490;13.326;2023-07-16T00:31:23;3.03;;;2.37;;
29380;SDS011;16364;52.490;13.326;2023-07-16T00:33:48;3.17;;;2.97;;
29380;SDS011;16364;52.490;13.326;2023-07-16T00:36:13;2.90;;;2.57;;
29380;SDS011;16364;52.490;13.326;2023-07-16T00:38:38;2.80;;;2.50;;
29380;SDS011;16364;52.490;13.326;2023-07-16T00:41:07;3.63;;;2.70;;
29380;SDS011;16364;52.490;13.326;2023-07-16T00:43:33;6.20;;;3.00;;
29380;SDS011;16364;52.490;13.326;2023-07-16T00:45:58;3.43;;;2.50;;
29380;SDS011;16364;52.490;13.326;2023-07-16T00:48:24;2.60;;;2.40;;
29380;SDS011;16364;52.490;13.326;2023-07-16T00:50:49;3.10;;;2.90;;
29380;SDS011;16364;52.490;13.326;2023-07-16T00:53:15;2.83;;;2.63;;
29380;SDS011;16364;52.490;13.326;2023-07-16T00:55:40;3.40;;;3.20;;
29380;SDS011;16364;52.490;13.326;2023-07-16T00:58:06;4.90;;;3.40;;
29380;SDS011;16364;52.490;13.326;2023-07-16T01:00:35;4.13;;;2.97;;
29380;SDS011;16364;52.490;13.326;2023-07-16T01:03:01;3.63;;;2.80;;
29380;SDS011;16364;52.490;13.326;2023-07-16T01:05:30;3.50;;;3.20;;
29380;SDS011;16364;52.490;13.326;2023-07-16T01:07:59;4.37;;;3.60;;
29380;SDS011;16364;52.490;13.326;2023-07-16T01:10:26;3.33;;;3.13;;
29380;SDS011;16364;52.490;13.326;2023-07-16T01:12:53;5.20;;;4.70;;
29380;SDS011;16364;52.490;13.326;2023-07-16T01:15:19;5.10;;;3.30;;
29380;SDS011;16364;52.490;13.326;2023-07-16T01:17:44;4.60;;;4.10;;
29380;SDS011;16364;52.490;13.326;2023-07-16T01:20:10;3.50;;;3.30;;
29380;SDS011;16364;52.490;13.326;2023-07-16T01:25:35;4.77;;;4.47;;
29380;SDS011;16364;52.490;13.326;2023-07-16T01:30:45;4.23;;;3.80;;
29380;SDS011;16364;52.490;13.326;2023-07-16T01:33:11;4.87;;;4.50;;
29380;SDS011;16364;52.490;13.326;2023-07-16T01:35:37;7.97;;;5.17;;
29380;SDS011;16364;52.490;13.326;2023-07-16T01:38:04;6.63;;;4.60;;
29380;SDS011;16364;52.490;13.326;2023-07-16T01:40:29;4.73;;;4.43;;
29380;SDS011;16364;52.490;13.326;2023-07-16T01:42:55;4.93;;;4.53;;
29380;SDS011;16364;52.490;13.326;2023-07-16T01:45:20;5.07;;;4.73;;
29380;SDS011;16364;52.490;13.326;2023-07-16T01:50:46;7.07;;;4.10;;
29380;SDS011;16364;52.490;13.326;2023-07-16T01:53:11;4.73;;;4.33;;
29380;SDS011;16364;52.490;13.326;2023-07-16T01:55:37;3.97;;;3.67;;
29380;SDS011;16364;52.490;13.326;2023-07-16T01:58:02;4.43;;;4.10;;
29380;SDS011;16364;52.490;13.326;2023-07-16T02:00:28;4.17;;;3.83;;
29380;SDS011;16364;52.490;13.326;2023-07-16T02:02:53;4.90;;;3.93;;
29380;SDS011;16364;52.490;13.326;2023-07-16T02:05:18;4.27;;;3.87;;
29380;SDS011;16364;52.490;13.326;2023-07-16T02:07:43;3.63;;;3.40;;
29380;SDS011;16364;52.490;13.326;2023-07-16T02:10:09;3.23;;;3.03;;
29380;SDS011;16364;52.490;13.326;2023-07-16T02:12:34;3.10;;;2.80;;
29380;SDS011;16364;52.490;13.326;2023-07-16T02:14:59;3.70;;;3.13;;
29380;SDS011;16364;52.490;13.326;2023-07-16T02:17:24;3.60;;;3.17;;
29380;SDS011;16364;52.490;13.326;2023-07-16T02:19:50;2.57;;;2.37;;
29380;SDS011;16364;52.490;13.326;2023-07-16T02:22:15;3.87;;;3.57;;
29380;SDS011;16364;52.490;13.326;2023-07-16T02:24:40;5.83;;;3.00;;
29380;SDS011;16364;52.490;13.326;2023-07-16T02:27:05;3.30;;;3.10;;
29380;SDS011;16364;52.490;13.326;2023-07-16T02:29:31;3.37;;;3.17;;
29380;SDS011;16364;52.490;13.326;2023-07-16T02:31:56;3.50;;;3.20;;
29380;SDS011;16364;52.490;13.326;2023-07-16T02:34:22;3.97;;;3.67;;
29380;SDS011;16364;52.490;13.326;2023-07-16T02:36:47;4.33;;;3.97;;
29380;SDS011;16364;52.490;13.326;2023-07-16T02:39:12;4.67;;;3.80;;
29380;SDS011;16364;52.490;13.326;2023-07-16T02:41:37;5.13;;;4.03;;
29380;SDS011;16364;52.490;13.326;2023-07-16T02:44:04;5.93;;;4.17;;
29380;SDS011;16364;52.490;13.326;2023-07-16T02:46:29;4.57;;;3.77;;
29380;SDS011;16364;52.490;13.326;2023-07-16T02:48:54;4.83;;;4.43;;
29380;SDS011;16364;52.490;13.326;2023-07-16T02:51:20;4.83;;;4.43;;
29380;SDS011;16364;52.490;13.326;2023-07-16T02:53:45;5.47;;;4.97;;
29380;SDS011;16364;52.490;13.326;2023-07-16T02:56:10;5.20;;;4.63;;
29380;SDS011;16364;52.490;13.326;2023-07-16T02:58:35;5.10;;;4.70;;
29380;SDS011;16364;52.490;13.326;2023-07-16T03:01:01;4.60;;;4.30;;
29380;SDS011;16364;52.490;13.326;2023-07-16T03:03:26;4.93;;;4.53;;
29380;SDS011;16364;52.490;13.326;2023-07-16T03:05:51;5.33;;;4.93;;
29380;SDS011;16364;52.490;13.326;2023-07-16T03:08:16;4.40;;;4.10;;
29380;SDS011;16364;52.490;13.326;2023-07-16T03:10:42;5.27;;;4.10;;
29380;SDS011;16364;52.490;13.326;2023-07-16T03:13:07;5.00;;;4.60;;
29380;SDS011;16364;52.490;13.326;2023-07-16T03:15:32;4.93;;;4.10;;
29380;SDS011;16364;52.490;13.326;2023-07-16T03:17:57;4.47;;;4.10;;
29380;SDS011;16364;52.490;13.326;2023-07-16T03:20:22;4.43;;;4.10;;
29380;SDS011;16364;52.490;13.326;2023-07-16T03:22:48;4.30;;;3.60;;
29380;SDS011;16364;52.490;13.326;2023-07-16T03:25:13;4.07;;;3.77;;
29380;SDS011;16364;52.490;13.326;2023-07-16T03:27:38;5.37;;;4.10;;
29380;SDS011;16364;52.490;13.326;2023-07-16T03:30:04;3.67;;;3.47;;
29380;SDS011;16364;52.490;13.326;2023-07-16T03:32:29;4.33;;;3.47;;
29380;SDS011;16364;52.490;13.326;2023-07-16T03:34:54;4.17;;;3.57;;
29380;SDS011;16364;52.490;13.326;2023-07-16T03:37:21;3.60;;;3.30;;
29380;SDS011;16364;52.490;13.326;2023-07-16T03:39:46;3.40;;;3.20;;
29380;SDS011;16364;52.490;13.326;2023-07-16T03:42:11;3.30;;;3.00;;
29380;SDS011;16364;52.490;13.326;2023-07-16T03:44:36;4.20;;;3.90;;
29380;SDS011;16364;52.490;13.326;2023-07-16T03:47:01;5.50;;;4.33;;
29380;SDS011;16364;52.490;13.326;2023-07-16T03:49:27;4.13;;;3.73;;
29380;SDS011;16364;52.490;13.326;2023-07-16T03:51:52;4.37;;;3.10;;
29380;SDS011;16364;52.490;13.326;2023-07-16T03:54:17;2.90;;;2.70;;
29380;SDS011;16364;52.490;13.326;2023-07-16T03:56:42;2.93;;;2.70;;
29380;SDS011;16364;52.490;13.326;2023-07-16T03:59:08;2.80;;;2.60;;
29380;SDS011;16364;52.490;13.326;2023-07-16T04:01:33;2.40;;;2.20;;
29380;SDS011;16364;52.490;13.326;2023-07-16T04:03:58;3.27;;;2.97;;
29380;SDS011;16364;52.490;13.326;2023-07-16T04:06:23;3.60;;;3.03;;
29380;SDS011;16364;52.490;13.326;2023-07-16T04:08:49;2.80;;;2.60;;
29380;SDS011;16364;52.490;13.326;2023-07-16T04:11:14;4.30;;;3.13;;
29380;SDS011;16364;52.490;13.326;2023-07-16T04:13:39;3.40;;;3.10;;
29380;SDS011;16364;52.490;13.326;2023-07-16T04:16:04;3.73;;;3.43;;
29380;SDS011;16364;52.490;13.326;2023-07-16T04:18:29;3.33;;;3.00;;
29380;SDS011;16364;52.490;13.326;2023-07-16T04:20:55;3.07;;;2.87;;
29380;SDS011;16364;52.490;13.326;2023-07-16T04:23:20;3.23;;;2.60;;
29380;SDS011;16364;52.490;13.326;2023-07-16T04:25:45;2.73;;;2.53;;
29380;SDS011;16364;52.490;13.326;2023-07-16T04:28:11;3.27;;;2.97;;
29380;SDS011;16364;52.490;13.326;2023-07-16T04:30:37;3.10;;;2.90;;
29380;SDS011;16364;52.490;13.326;2023-07-16T04:33:03;3.27;;;3.07;;
29380;SDS011;16364;52.490;13.326;2023-07-16T04:35:28;3.27;;;2.77;;
29380;SDS011;16364;52.490;13.326;2023-07-16T04:37:53;3.07;;;2.87;;
29380;SDS011;16364;52.490;13.326;2023-07-16T04:40:19;4.50;;;3.30;;
29380;SDS011;16364;52.490;13.326;2023-07-16T04:42:44;3.00;;;2.80;;
29380;SDS011;16364;52.490;13.326;2023-07-16T04:45:09;3.27;;;3.07;;
29380;SDS011;16364;52.490;13.326;2023-07-16T04:47:34;4.03;;;3.13;;
29380;SDS011;16364;52.490;13.326;2023-07-16T04:50:00;3.20;;;2.90;;
29380;SDS011;16364;52.490;13.326;2023-07-16T04:52:25;3.03;;;2.83;;
29380;SDS011;16364;52.490;13.326;2023-07-16T04:54:50;3.27;;;2.90;;
29380;SDS011;16364;52.490;13.326;2023-07-16T04:57:15;3.57;;;3.27;;
29380;SDS011;16364;52.490;13.326;2023-07-16T04:59:41;4.20;;;3.73;;
29380;SDS011;16364;52.490;13.326;2023-07-16T05:02:06;3.80;;;3.50;;
29380;SDS011;16364;52.490;13.326;2023-07-16T05:04:32;3.47;;;3.17;;
29380;SDS011;16364;52.490;13.326;2023-07-16T05:06:57;4.40;;;3.97;;
29380;SDS011;16364;52.490;13.326;2023-07-16T05:09:22;3.50;;;3.20;;
29380;SDS011;16364;52.490;13.326;2023-07-16T05:11:48;3.63;;;3.33;;
29380;SDS011;16364;52.490;13.326;2023-07-16T05:14:13;4.50;;;4.23;;
29380;SDS011;16364;52.490;13.326;2023-07-16T05:16:38;6.30;;;3.77;;
29380;SDS011;16364;52.490;13.326;2023-07-16T05:19:03;3.20;;;3.00;;
29380;SDS011;16364;52.490;13.326;2023-07-16T05:21:29;4.87;;;4.47;;
29380;SDS011;16364;52.490;13.326;2023-07-16T05:23:54;3.33;;;3.10;;
29380;SDS011;16364;52.490;13.326;2023-07-16T05:26:19;4.17;;;3.87;;
29380;SDS011;16364;52.490;13.326;2023-07-16T05:28:44;3.90;;;3.43;;
29380;SDS011;16364;52.490;13.326;2023-07-16T05:31:09;3.90;;;3.60;;
29380;SDS011;16364;52.490;13.326;2023-07-16T05:33:35;3.60;;;3.30;;
29380;SDS011;16364;52.490;13.326;2023-07-16T05:36:00;3.30;;;3.10;;
29380;SDS011;16364;52.490;13.326;2023-07-16T05:38:25;4.40;;;4.10;;
29380;SDS011;16364;52.490;13.326;2023-07-16T05:40:50;3.67;;;3.37;;
29380;SDS011;16364;52.490;13.326;2023-07-16T05:43:16;3.57;;;3.30;;
29380;SDS011;16364;52.490;13.326;2023-07-16T05:45:41;3.20;;;3.00;;
29380;SDS011;16364;52.490;13.326;2023-07-16T05:48:06;4.10;;;3.80;;
29380;SDS011;16364;52.490;13.326;2023-07-16T05:50:31;4.20;;;3.90;;
29380;SDS011;16364;52.490;13.326;2023-07-16T05:52:57;3.70;;;3.37;;
29380;SDS011;16364;52.490;13.326;2023-07-16T05:55:22;4.53;;;4.27;;
29380;SDS011;16364;52.490;13.326;2023-07-16T05:57:47;10.33;;;4.40;;
29380;SDS011;16364;52.490;13.326;2023-07-16T06:00:12;4.87;;;4.47;;
29380;SDS011;16364;52.490;13.326;2023-07-16T06:02:38;4.13;;;3.83;;
29380;SDS011;16364;52.490;13.326;2023-07-16T06:05:03;5.50;;;3.47;;
29380;SDS011;16364;52.490;13.326;2023-07-16T06:07:29;3.97;;;3.57;;
29380;SDS011;16364;52.490;13.326;2023-07-16T06:09:54;7.90;;;4.57;;
29380;SDS011;16364;52.490;13.326;2023-07-16T06:12:20;3.73;;;3.43;;
29380;SDS011;16364;52.490;13.326;2023-07-16T06:14:45;4.30;;;3.30;;
29380;SDS011;16364;52.490;13.326;2023-07-16T06:17:10;3.60;;;3.40;;
29380;SDS011;16364;52.490;13.326;2023-07-16T06:19:35;2.93;;;2.73;;
29380;SDS011;16364;52.490;13.326;2023-07-16T06:22:01;4.47;;;3.70;;
29380;SDS011;16364;52.490;13.326;2023-07-16T06:24:26;3.80;;;3.30;;
29380;SDS011;16364;52.490;13.326;2023-07-16T06:26:51;3.70;;;3.50;;
29380;SDS011;16364;52.490;13.326;2023-07-16T06:29:17;4.23;;;3.93;;
29380;SDS011;16364;52.490;13.326;2023-07-16T06:31:42;3.73;;;3.47;;
29380;SDS011;16364;52.490;13.326;2023-07-16T06:34:07;3.30;;;3.10;;
29380;SDS011;16364;52.490;13.326;2023-07-16T06:36:33;3.73;;;3.30;;
29380;SDS011;16364;52.490;13.326;2023-07-16T06:38:58;4.20;;;3.87;;
29380;SDS011;16364;52.490;13.326;2023-07-16T06:41:25;9.27;;;6.77;;
29380;SDS011;16364;52.490;13.326;2023-07-16T06:43:50;8.80;;;5.83;;
29380;SDS011;16364;52.490;13.326;2023-07-16T06:46:15;4.83;;;3.10;;
29380;SDS011;16364;52.490;13.326;2023-07-16T06:48:40;2.83;;;2.63;;
29380;SDS011;16364;52.490;13.326;2023-07-16T06:51:06;2.70;;;2.50;;
29380;SDS011;16364;52.490;13.326;2023-07-16T06:53:32;3.23;;;2.70;;
29380;SDS011;16364;52.490;13.326;2023-07-16T06:55:57;2.90;;;2.70;;
29380;SDS011;16364;52.490;13.326;2023-07-16T06:58:30;3.30;;;3.10;;
29380;SDS011;16364;52.490;13.326;2023-07-16T07:00:56;3.53;;;3.33;;
29380;SDS011;16364;52.490;13.326;2023-07-16T07:03:21;5.70;;;2.77;;
29380;SDS011;16364;52.490;13.326;2023-07-16T07:05:46;2.43;;;2.33;;
29380;SDS011;16364;52.490;13.326;2023-07-16T07:08:11;2.90;;;2.70;;
29380;SDS011;16364;52.490;13.326;2023-07-16T07:10:37;3.10;;;2.60;;
29380;SDS011;16364;52.490;13.326;2023-07-16T07:13:04;5.63;;;2.80;;
29380;SDS011;16364;52.490;13.326;2023-07-16T07:15:29;4.17;;;3.20;;
29380;SDS011;16364;52.490;13.326;2023-07-16T07:17:55;2.80;;;2.60;;
29380;SDS011;16364;52.490;13.326;2023-07-16T07:20:20;4.60;;;3.00;;
29380;SDS011;16364;52.490;13.326;2023-07-16T07:22:45;3.47;;;2.70;;
29380;SDS011;16364;52.490;13.326;2023-07-16T07:25:10;3.13;;;2.83;;
29380;SDS011;16364;52.490;13.326;2023-07-16T07:27:36;3.03;;;2.73;;
29380;SDS011;16364;52.490;13.326;2023-07-16T07:30:01;3.97;;;2.67;;
29380;SDS011;16364;52.490;13.326;2023-07-16T07:32:26;2.80;;;2.60;;
29380;SDS011;16364;52.490;13.326;2023-07-16T07:34:51;3.30;;;3.10;;
29380;SDS011;16364;52.490;13.326;2023-07-16T07:37:16;3.17;;;2.87;;
29380;SDS011;16364;52.490;13.326;2023-07-16T07:39:42;3.07;;;2.87;;
29380;SDS011;16364;52.490;13.326;2023-07-16T07:42:07;2.53;;;2.10;;
29380;SDS011;16364;52.490;13.326;2023-07-16T07:44:34;2.60;;;2.13;;
29380;SDS011;16364;52.490;13.326;2023-07-16T07:47:00;2.60;;;2.40;;
29380;SDS011;16364;52.490;13.326;2023-07-16T07:49:25;3.07;;;2.87;;
29380;SDS011;16364;52.490;13.326;2023-07-16T07:51:50;2.67;;;2.47;;
29380;SDS011;16364;52.490;13.326;2023-07-16T07:54:15;2.63;;;2.20;;
29380;SDS011;16364;52.490;13.326;2023-07-16T07:56:41;3.77;;;2.50;;
29380;SDS011;16364;52.490;13.326;2023-07-16T07:59:06;3.07;;;2.23;;
29380;SDS011;16364;52.490;13.326;2023-07-16T08:01:31;2.63;;;2.30;;
29380;SDS011;16364;52.490;13.326;2023-07-16T08:03:57;2.50;;;2.30;;
29380;SDS011;16364;52.490;13.326;2023-07-16T08:06:22;2.83;;;1.87;;
29380;SDS011;16364;52.490;13.326;2023-07-16T08:08:47;1.80;;;1.70;;
29380;SDS011;16364;52.490;13.326;2023-07-16T08:11:12;2.20;;;2.00;;
29380;SDS011;16364;52.490;13.326;2023-07-16T08:13:38;2.10;;;1.90;;
29380;SDS011;16364;52.490;13.326;2023-07-16T08:16:03;2.17;;;1.93;;
29380;SDS011;16364;52.490;13.326;2023-07-16T08:18:28;2.10;;;1.90;;
29380;SDS011;16364;52.490;13.326;2023-07-16T08:20:54;2.67;;;1.80;;
29380;SDS011;16364;52.490;13.326;2023-07-16T08:23:19;3.20;;;1.83;;
29380;SDS011;16364;52.490;13.326;2023-07-16T08:25:44;2.40;;;2.20;;
29380;SDS011;16364;52.490;13.326;2023-07-16T08:28:10;2.57;;;1.90;;
29380;SDS011;16364;52.490;13.326;2023-07-16T08:30:36;3.77;;;1.70;;
29380;SDS011;16364;52.490;13.326;2023-07-16T08:33:01;3.10;;;1.90;;
29380;SDS011;16364;52.490;13.326;2023-07-16T08:35:27;2.37;;;1.53;;
29380;SDS011;16364;52.490;13.326;2023-07-16T08:37:52;4.90;;;1.60;;
29380;SDS011;16364;52.490;13.326;2023-07-16T08:40:18;2.70;;;2.00;;
29380;SDS011;16364;52.490;13.326;2023-07-16T08:42:46;2.50;;;2.00;;
29380;SDS011;16364;52.490;13.326;2023-07-16T08:45:13;3.63;;;1.60;;
29380;SDS011;16364;52.490;13.326;2023-07-16T08:47:42;2.97;;;1.67;;
29380;SDS011;16364;52.490;13.326;2023-07-16T08:50:07;2.00;;;1.80;;
29380;SDS011;16364;52.490;13.326;2023-07-16T08:52:32;2.13;;;1.90;;
29380;SDS011;16364;52.490;13.326;2023-07-16T08:54:57;2.27;;;1.63;;
29380;SDS011;16364;52.490;13.326;2023-07-16T08:57:23;2.50;;;1.70;;
29380;SDS011;16364;52.490;13.326;2023-07-16T08:59:48;2.53;;;1.83;;
29380;SDS011;16364;52.490;13.326;2023-07-16T09:02:15;1.93;;;1.70;;
29380;SDS011;16364;52.490;13.326;2023-07-16T09:04:41;1.87;;;1.60;;
29380;SDS011;16364;52.490;13.326;2023-07-16T09:07:06;2.17;;;1.97;;
29380;SDS011;16364;52.490;13.326;2023-07-16T09:09:32;2.73;;;1.80;;
29380;SDS011;16364;52.490;13.326;2023-07-16T09:11:57;2.73;;;1.90;;
29380;SDS011;16364;52.490;13.326;2023-07-16T09:14:22;2.30;;;1.70;;
29380;SDS011;16364;52.490;13.326;2023-07-16T09:16:51;3.73;;;1.90;;
29380;SDS011;16364;52.490;13.326;2023-07-16T09:19:16;2.30;;;2.10;;
29380;SDS011;16364;52.490;13.326;2023-07-16T09:21:45;2.57;;;2.10;;
29380;SDS011;16364;52.490;13.326;2023-07-16T09:24:11;2.10;;;1.90;;
29380;SDS011;16364;52.490;13.326;2023-07-16T09:26:36;2.20;;;2.00;;
29380;SDS011;16364;52.490;13.326;2023-07-16T09:29:05;4.00;;;2.63;;
29380;SDS011;16364;52.490;13.326;2023-07-16T09:31:30;2.00;;;1.80;;
29380;SDS011;16364;52.490;13.326;2023-07-16T09:33:57;3.60;;;1.90;;
29380;SDS011;16364;52.490;13.326;2023-07-16T09:36:26;2.07;;;1.60;;
29380;SDS011;16364;52.490;13.326;2023-07-16T09:38:54;2.50;;;1.87;;
29380;SDS011;16364;52.490;13.326;2023-07-16T09:41:22;1.50;;;1.40;;
29380;SDS011;16364;52.490;13.326;2023-07-16T09:43:47;3.27;;;2.30;;
29380;SDS011;16364;52.490;13.326;2023-07-16T09:46:12;1.73;;;1.63;;
29380;SDS011;16364;52.490;13.326;2023-07-16T09:48:38;2.53;;;1.70;;
29380;SDS011;16364;52.490;13.326;2023-07-16T09:51:03;3.10;;;1.60;;
29380;SDS011;16364;52.490;13.326;2023-07-16T09:53:30;2.10;;;1.90;;
29380;SDS011;16364;52.490;13.326;2023-07-16T09:55:56;2.00;;;1.80;;
29380;SDS011;16364;52.490;13.326;2023-07-16T09:58:23;2.50;;;1.90;;
29380;SDS011;16364;52.490;13.326;2023-07-16T10:00:49;1.97;;;1.57;;
29380;SDS011;16364;52.490;13.326;2023-07-16T10:03:15;3.30;;;1.87;;
29380;SDS011;16364;52.490;13.326;2023-07-16T10:05:42;1.80;;;1.70;;
29380;SDS011;16364;52.490;13.326;2023-07-16T10:08:15;3.10;;;1.77;;
29380;SDS011;16364;52.490;13.326;2023-07-16T10:10:43;3.40;;;2.17;;
29380;SDS011;16364;52.490;13.326;2023-07-16T10:13:10;3.10;;;1.90;;
29380;SDS011;16364;52.490;13.326;2023-07-16T10:15:36;3.20;;;1.90;;
29380;SDS011;16364;52.490;13.326;2023-07-16T10:18:02;4.80;;;2.10;;
29380;SDS011;16364;52.490;13.326;2023-07-16T10:20:27;1.80;;;1.70;;
29380;SDS011;16364;52.490;13.326;2023-07-16T10:22:53;2.47;;;1.90;;
29380;SDS011;16364;52.490;13.326;2023-07-16T10:27:47;4.23;;;2.07;;
29380;SDS011;16364;52.490;13.326;2023-07-16T10:30:12;2.57;;;1.90;;
29380;SDS011;16364;52.490;13.326;2023-07-16T10:32:38;2.00;;;1.80;;
29380;SDS011;16364;52.490;13.326;2023-07-16T10:35:04;3.70;;;1.80;;
29380;SDS011;16364;52.490;13.326;2023-07-16T10:37:29;2.10;;;1.87;;
29380;SDS011;16364;52.490;13.326;2023-07-16T10:39:56;3.73;;;1.90;;
29380;SDS011;16364;52.490;13.326;2023-07-16T10:42:22;2.13;;;1.93;;
29380;SDS011;16364;52.490;13.326;2023-07-16T10:44:57;1.87;;;1.77;;
29380;SDS011;16364;52.490;13.326;2023-07-16T10:49:49;1.90;;;1.80;;
29380;SDS011;16364;52.490;13.326;2023-07-16T10:52:14;2.37;;;1.80;;
29380;SDS011;16364;52.490;13.326;2023-07-16T10:54:40;2.90;;;1.80;;
29380;SDS011;16364;52.490;13.326;2023-07-16T10:57:05;3.10;;;1.93;;
29380;SDS011;16364;52.490;13.326;2023-07-16T10:59:31;3.50;;;2.00;;
29380;SDS011;16364;52.490;13.326;2023-07-16T11:01:56;2.40;;;1.83;;
29380;SDS011;16364;52.490;13.326;2023-07-16T11:04:21;2.57;;;1.70;;
29380;SDS011;16364;52.490;13.326;2023-07-16T11:06:46;4.40;;;2.20;;
29380;SDS011;16364;52.490;13.326;2023-07-16T11:09:14;2.27;;;2.00;;
29380;SDS011;16364;52.490;13.326;2023-07-16T11:11:39;2.80;;;2.00;;
29380;SDS011;16364;52.490;13.326;2023-07-16T11:14:05;4.53;;;1.90;;
29380;SDS011;16364;52.490;13.326;2023-07-16T11:16:34;2.70;;;1.93;;
29380;SDS011;16364;52.490;13.326;2023-07-16T11:19:01;4.80;;;1.77;;
29380;SDS011;16364;52.490;13.326;2023-07-16T11:21:26;5.37;;;1.90;;
29380;SDS011;16364;52.490;13.326;2023-07-16T11:23:51;2.40;;;2.00;;
29380;SDS011;16364;52.490;13.326;2023-07-16T11:26:16;2.80;;;2.13;;
29380;SDS011;16364;52.490;13.326;2023-07-16T11:28:42;2.00;;;1.90;;
29380;SDS011;16364;52.490;13.326;2023-07-16T11:31:14;3.40;;;2.37;;
29380;SDS011;16364;52.490;13.326;2023-07-16T11:33:41;2.53;;;2.13;;
29380;SDS011;16364;52.490;13.326;2023-07-16T11:36:06;3.33;;;2.57;;
29380;SDS011;16364;52.490;13.326;2023-07-16T11:38:35;2.10;;;1.90;;
29380;SDS011;16364;52.490;13.326;2023-07-16T11:41:00;2.43;;;2.00;;
29380;SDS011;16364;52.490;13.326;2023-07-16T11:43:26;2.47;;;1.90;;
29380;SDS011;16364;52.490;13.326;2023-07-16T11:45:51;2.10;;;1.60;;
29380;SDS011;16364;52.490;13.326;2023-07-16T11:48:16;2.87;;;1.83;;
29380;SDS011;16364;52.490;13.326;2023-07-16T11:50:41;4.30;;;1.87;;
29380;SDS011;16364;52.490;13.326;2023-07-16T11:53:07;2.17;;;1.70;;
29380;SDS011;16364;52.490;13.326;2023-07-16T11:55:32;1.53;;;1.43;;
29380;SDS011;16364;52.490;13.326;2023-07-16T11:58:00;2.50;;;1.40;;
29380;SDS011;16364;52.490;13.326;2023-07-16T12:00:27;2.53;;;1.60;;
29380;SDS011;16364;52.490;13.326;2023-07-16T12:02:53;1.83;;;1.50;;
29380;SDS011;16364;52.490;13.326;2023-07-16T12:05:18;1.93;;;1.73;;
29380;SDS011;16364;52.490;13.326;2023-07-16T12:07:44;2.53;;;1.70;;
29380;SDS011;16364;52.490;13.326;2023-07-16T12:10:09;3.43;;;1.60;;
29380;SDS011;16364;52.490;13.326;2023-07-16T12:12:34;2.40;;;1.57;;
29380;SDS011;16364;52.490;13.326;2023-07-16T12:15:11;2.73;;;1.90;;
29380;SDS011;16364;52.490;13.326;2023-07-16T12:17:37;2.30;;;1.63;;
29380;SDS011;16364;52.490;13.326;2023-07-16T12:20:02;2.53;;;1.60;;
29380;SDS011;16364;52.490;13.326;2023-07-16T12:22:29;1.50;;;1.40;;
29380;SDS011;16364;52.490;13.326;2023-07-16T12:24:54;2.77;;;1.60;;
29380;SDS011;16364;52.490;13.326;2023-07-16T12:27:20;1.50;;;1.40;;
29380;SDS011;16364;52.490;13.326;2023-07-16T12:29:45;2.37;;;1.93;;
29380;SDS011;16364;52.490;13.326;2023-07-16T12:32:11;2.43;;;1.30;;
29380;SDS011;16364;52.490;13.326;2023-07-16T12:34:36;3.20;;;1.50;;
29380;SDS011;16364;52.490;13.326;2023-07-16T12:37:02;4.00;;;1.70;;
29380;SDS011;16364;52.490;13.326;2023-07-16T12:39:27;4.73;;;1.40;;
29380;SDS011;16364;52.490;13.326;2023-07-16T12:41:53;5.73;;;2.03;;
29380;SDS011;16364;52.490;13.326;2023-07-16T12:44:18;2.40;;;1.70;;
29380;SDS011;16364;52.490;13.326;2023-07-16T12:46:43;2.97;;;1.60;;
29380;SDS011;16364;52.490;13.326;2023-07-16T12:49:08;2.30;;;1.53;;
29380;SDS011;16364;52.490;13.326;2023-07-16T12:51:34;1.93;;;1.50;;
29380;SDS011;16364;52.490;13.326;2023-07-16T12:53:59;2.90;;;1.40;;
29380;SDS011;16364;52.490;13.326;2023-07-16T12:56:25;3.50;;;1.80;;
29380;SDS011;16364;52.490;13.326;2023-07-16T12:58:51;1.87;;;1.30;;
29380;SDS011;16364;52.490;13.326;2023-07-16T13:01:16;1.80;;;1.70;;
29380;SDS011;16364;52.490;13.326;2023-07-16T13:03:41;2.30;;;1.50;;
29380;SDS011;16364;52.490;13.326;2023-07-16T13:06:06;3.07;;;1.60;;
29380;SDS011;16364;52.490;13.326;2023-07-16T13:08:32;1.63;;;1.53;;
29380;SDS011;16364;52.490;13.326;2023-07-16T13:10:57;1.70;;;1.40;;
29380;SDS011;16364;52.490;13.326;2023-07-16T13:13:22;2.50;;;1.50;;
29380;SDS011;16364;52.490;13.326;2023-07-16T13:15:47;1.73;;;1.30;;
29380;SDS011;16364;52.490;13.326;2023-07-16T13:18:13;3.00;;;1.43;;
29380;SDS011;16364;52.490;13.326;2023-07-16T13:20:38;3.50;;;1.60;;
29380;SDS011;16364;52.490;13.326;2023-07-16T13:23:04;2.50;;;1.50;;
29380;SDS011;16364;52.490;13.326;2023-07-16T13:25:29;2.67;;;1.50;;
29380;SDS011;16364;52.490;13.326;2023-07-16T13:27:55;2.50;;;1.50;;
29380;SDS011;16364;52.490;13.326;2023-07-16T13:30:20;2.63;;;1.60;;
29380;SDS011;16364;52.490;13.326;2023-07-16T13:32:45;1.50;;;1.13;;
29380;SDS011;16364;52.490;13.326;2023-07-16T13:35:11;1.87;;;1.40;;
29380;SDS011;16364;52.490;13.326;2023-07-16T13:37:36;2.33;;;1.40;;
29380;SDS011;16364;52.490;13.326;2023-07-16T13:40:01;2.00;;;1.60;;
29380;SDS011;16364;52.490;13.326;2023-07-16T13:42:27;2.07;;;1.43;;
29380;SDS011;16364;52.490;13.326;2023-07-16T13:44:52;6.93;;;1.40;;
29380;SDS011;16364;52.490;13.326;2023-07-16T13:47:17;3.53;;;1.90;;
29380;SDS011;16364;52.490;13.326;2023-07-16T13:49:42;2.07;;;1.43;;
29380;SDS011;16364;52.490;13.326;2023-07-16T13:52:08;3.30;;;1.70;;
29380;SDS011;16364;52.490;13.326;2023-07-16T13:54:33;2.60;;;1.60;;
29380;SDS011;16364;52.490;13.326;2023-07-16T13:56:58;3.00;;;1.30;;
29380;SDS011;16364;52.490;13.326;2023-07-16T13:59:23;2.00;;;1.40;;
29380;SDS011;16364;52.490;13.326;2023-07-16T14:01:58;1.90;;;1.27;;
29380;SDS011;16364;52.490;13.326;2023-07-16T14:04:23;2.30;;;1.40;;
29380;SDS011;16364;52.490;13.326;2023-07-16T14:06:48;2.20;;;1.70;;
29380;SDS011;16364;52.490;13.326;2023-07-16T14:09:14;1.77;;;1.23;;
29380;SDS011;16364;52.490;13.326;2023-07-16T14:11:39;2.63;;;1.33;;
29380;SDS011;16364;52.490;13.326;2023-07-16T14:14:04;2.47;;;1.50;;
29380;SDS011;16364;52.490;13.326;2023-07-16T14:16:29;2.47;;;1.30;;
29380;SDS011;16364;52.490;13.326;2023-07-16T14:18:54;2.90;;;1.30;;
29380;SDS011;16364;52.490;13.326;2023-07-16T14:21:20;3.33;;;1.30;;
29380;SDS011;16364;52.490;13.326;2023-07-16T14:23:45;1.50;;;1.30;;
29380;SDS011;16364;52.490;13.326;2023-07-16T14:26:11;1.30;;;1.20;;
29380;SDS011;16364;52.490;13.326;2023-07-16T14:28:36;2.67;;;1.40;;
29380;SDS011;16364;52.490;13.326;2023-07-16T14:31:02;1.60;;;1.50;;
29380;SDS011;16364;52.490;13.326;2023-07-16T14:33:27;1.30;;;1.20;;
29380;SDS011;16364;52.490;13.326;2023-07-16T14:35:52;3.00;;;1.57;;
29380;SDS011;16364;52.490;13.326;2023-07-16T14:38:18;3.80;;;1.40;;